Time;durP1;ratioP1;P1;durP2;ratioP2;P2;SDS_P1;SDS_P2;PMS_P1;PMS_P2;Temp;Humidity;BMP_temperature;BMP_pressure;BME280_temperature;BME280_humidity;BME280_pressure;Samples;Min_cycle;Max_cycle;Signal;HPM_P1;HPM_P2
2021/06/14 04:57:16;;;;;;;38.17;23.50;;;;;;;12.73;75.52;100826.91;5146692;27;20347;-67
2021/06/14 04:59:41;;;;;;;12.23;6.70;;;;;;;12.90;75.54;100832.22;5106813;28;20040;-67
2021/06/14 05:02:07;;;;;;;10.63;5.20;;;;;;;13.11;75.11;100835.19;5110778;27;35261;-66
2021/06/14 05:04:32;;;;;;;8.43;4.70;;;;;;;13.34;75.10;100837.97;5111560;28;20038;-66
2021/06/14 05:06:57;;;;;;;10.13;5.57;;;;;;;13.54;74.94;100846.47;5111153;28;20024;-68
2021/06/14 05:09:23;;;;;;;8.60;5.45;;;;;;;13.79;74.81;100843.66;5107521;28;37813;-69
2021/06/14 05:11:48;;;;;;;11.57;5.43;;;;;;;13.97;74.07;100837.19;5108520;28;20028;-70
2021/06/14 05:14:15;;;;;;;8.50;4.55;;;;;;;14.12;74.03;100837.25;5107153;28;20047;-66
2021/06/14 05:16:41;;;;;;;11.13;4.72;;;;;;;14.26;73.39;100846.41;5109291;28;20045;-67
2021/06/14 05:19:06;;;;;;;9.02;4.63;;;;;;;14.34;72.83;100841.81;5090064;28;20035;-66
2021/06/14 05:21:32;;;;;;;11.10;5.30;;;;;;;14.50;72.85;100845.38;5091527;28;20025;-66
2021/06/14 05:23:57;;;;;;;11.07;5.20;;;;;;;14.63;72.58;100842.13;5091455;28;20033;-66
2021/06/14 05:26:22;;;;;;;12.32;6.20;;;;;;;14.75;72.14;100837.13;5090196;28;37040;-67
2021/06/14 05:28:48;;;;;;;11.07;5.68;;;;;;;14.81;71.47;100841.78;5090931;28;27315;-66
2021/06/14 05:31:13;;;;;;;15.30;7.88;;;;;;;14.85;71.06;100838.53;5099342;28;36892;-67
2021/06/14 05:33:38;;;;;;;15.88;6.68;;;;;;;14.88;70.55;100838.19;5110461;28;20032;-66
2021/06/14 05:36:04;;;;;;;9.88;5.63;;;;;;;14.88;70.39;100843.56;5111247;28;20067;-66
2021/06/14 05:38:30;;;;;;;10.48;5.90;;;;;;;14.93;70.16;100843.00;5109771;28;20392;-66
2021/06/14 05:40:55;;;;;;;8.82;5.30;;;;;;;14.97;69.86;100848.84;5108177;27;25878;-65
2021/06/14 05:43:20;;;;;;;7.95;4.97;;;;;;;15.01;69.45;100848.28;5108782;28;29288;-67
2021/06/14 05:45:46;;;;;;;13.50;5.20;;;;;;;15.10;69.04;100846.34;5111189;27;20032;-66
2021/06/14 05:48:11;;;;;;;14.05;5.03;;;;;;;15.22;69.72;100844.88;5109483;28;24452;-68
2021/06/14 05:50:37;;;;;;;11.38;5.28;;;;;;;15.37;69.24;100841.38;5111556;27;20074;-75
2021/06/14 05:53:02;;;;;;;10.25;4.97;;;;;;;15.50;68.79;100844.22;5111615;27;20036;-74
2021/06/14 05:55:27;;;;;;;11.20;5.22;;;;;;;15.63;68.51;100845.41;5110594;27;35086;-74
2021/06/14 05:57:53;;;;;;;12.05;5.13;;;;;;;15.71;68.33;100848.00;5116397;27;20024;-67
2021/06/14 06:00:19;;;;;;;15.48;5.45;;;;;;;15.82;67.86;100844.84;5110297;28;20029;-65
2021/06/14 06:02:44;;;;;;;15.43;6.97;;;;;;;15.95;67.88;100846.03;5109874;28;20158;-65
2021/06/14 06:05:10;;;;;;;11.35;5.80;;;;;;;16.04;67.00;100845.69;5110462;28;22507;-68
2021/06/14 06:07:36;;;;;;;18.08;7.82;;;;;;;16.16;66.94;100847.91;5102781;28;20033;-67
2021/06/14 06:10:03;;;;;;;12.05;5.97;;;;;;;16.30;66.99;100846.19;5095989;28;20027;-66
2021/06/14 06:12:28;;;;;;;19.52;10.40;;;;;;;16.47;66.80;100838.69;5096987;28;20108;-66
2021/06/14 06:14:54;;;;;;;15.77;8.73;;;;;;;16.57;66.28;100848.09;5096099;28;35640;-68
2021/06/14 06:17:19;;;;;;;10.55;5.32;;;;;;;16.69;65.81;100856.47;5097556;28;20401;-66
2021/06/14 06:19:44;;;;;;;11.35;5.70;;;;;;;16.80;65.46;100852.41;5096165;28;28748;-67
2021/06/14 06:22:12;;;;;;;11.02;5.32;;;;;;;16.91;64.94;100851.09;5096657;28;32943;-67
2021/06/14 06:24:37;;;;;;;11.00;5.53;;;;;;;17.01;64.80;100854.25;5095800;28;20472;-66
2021/06/14 06:27:03;;;;;;;10.93;7.13;;;;;;;17.14;64.53;100863.44;5097436;28;20028;-66
2021/06/14 06:29:28;;;;;;;13.00;4.93;;;;;;;17.19;62.60;100867.19;5095316;28;20438;-68
2021/06/14 06:31:54;;;;;;;7.70;4.88;;;;;;;17.23;63.55;100857.69;5096591;28;20032;-67
2021/06/14 06:34:19;;;;;;;10.95;5.55;;;;;;;17.35;62.51;100854.47;5096186;28;20085;-69
2021/06/14 06:36:44;;;;;;;16.77;5.75;;;;;;;17.51;63.29;100858.66;5095796;28;24744;-66
2021/06/14 06:39:10;;;;;;;15.45;6.38;;;;;;;17.63;62.78;100846.28;5094245;28;33755;-65
2021/06/14 06:41:35;;;;;;;11.20;5.30;;;;;;;17.82;62.54;100849.28;5095965;28;28875;-66
2021/06/14 06:44:01;;;;;;;9.20;5.07;;;;;;;17.99;62.27;100855.16;5096183;28;20029;-66
2021/06/14 06:46:26;;;;;;;15.05;5.45;;;;;;;18.12;61.99;100867.84;5095503;28;30641;-68
2021/06/14 06:48:51;;;;;;;13.38;5.60;;;;;;;18.31;61.35;100869.75;5096829;28;20397;-69
2021/06/14 06:51:17;;;;;;;14.38;5.75;;;;;;;18.49;61.33;100871.84;5094692;28;34816;-68
2021/06/14 06:53:42;;;;;;;9.10;5.25;;;;;;;18.55;60.30;100862.13;5095326;28;41312;-67
2021/06/14 06:56:08;;;;;;;12.80;6.40;;;;;;;18.59;59.29;100868.78;5094733;28;36301;-67
2021/06/14 06:58:33;;;;;;;14.73;5.55;;;;;;;18.68;59.66;100858.59;5094514;28;20036;-67
2021/06/14 07:00:58;;;;;;;17.65;7.78;;;;;;;18.83;59.40;100861.91;5094732;28;20029;-66
2021/06/14 07:03:24;;;;;;;16.50;5.97;;;;;;;18.88;58.32;100864.84;5096317;28;20131;-68
2021/06/14 07:05:50;;;;;;;12.93;5.57;;;;;;;19.05;59.05;100856.31;5095909;28;20040;-68
2021/06/14 07:08:15;;;;;;;7.25;5.10;;;;;;;19.18;57.93;100853.59;5095966;28;20112;-68
2021/06/14 07:10:41;;;;;;;8.90;5.63;;;;;;;19.24;57.28;100854.59;5094742;28;20031;-68
2021/06/14 07:13:06;;;;;;;7.85;5.43;;;;;;;19.18;56.02;100861.69;5096609;28;20039;-67
2021/06/14 07:15:32;;;;;;;13.60;5.80;;;;;;;19.18;56.34;100860.88;5095059;28;20036;-67
2021/06/14 07:17:57;;;;;;;11.73;5.25;;;;;;;19.27;55.78;100859.56;5095038;28;20036;-67
2021/06/14 07:20:23;;;;;;;15.05;5.82;;;;;;;19.31;55.41;100852.72;5093519;28;30008;-68
2021/06/14 07:22:48;;;;;;;11.75;5.45;;;;;;;19.52;56.15;100848.91;5093681;28;40128;-68
2021/06/14 07:25:14;;;;;;;11.18;5.60;;;;;;;19.93;55.98;100845.00;5072189;28;30164;-68
2021/06/14 07:27:40;;;;;;;12.57;5.32;;;;;;;20.16;55.06;100853.63;5054601;28;20017;-68
2021/06/14 07:30:07;;;;;;;13.27;5.85;;;;;;;20.33;54.54;100848.53;5054706;28;20034;-67
2021/06/14 07:32:32;;;;;;;11.02;4.78;;;;;;;20.59;54.70;100842.06;5054761;28;20075;-66
2021/06/14 07:34:57;;;;;;;10.85;5.05;;;;;;;20.92;53.72;100847.22;5037017;28;24170;-66
2021/06/14 07:37:23;;;;;;;11.20;5.55;;;;;;;20.97;52.28;100849.28;5054521;28;33640;-67
2021/06/14 07:39:48;;;;;;;9.25;5.38;;;;;;;21.00;52.33;100843.41;5055036;28;29969;-68
2021/06/14 07:42:14;;;;;;;51.22;40.40;;;;;;;21.22;52.36;100837.56;5055678;28;20029;-67
2021/06/14 07:44:39;;;;;;;13.00;8.23;;;;;;;21.41;51.62;100839.19;5054985;28;20496;-68
2021/06/14 07:47:05;;;;;;;11.88;6.28;;;;;;;21.51;50.60;100835.13;5055423;28;20033;-68
2021/06/14 07:49:30;;;;;;;9.00;5.20;;;;;;;21.64;50.98;100838.53;5053518;28;20107;-66
2021/06/14 07:51:56;;;;;;;10.23;5.53;;;;;;;21.85;49.84;100833.69;5053301;28;20025;-66
2021/06/14 07:54:21;;;;;;;13.10;5.78;;;;;;;22.03;49.20;100838.22;5053690;28;20025;-64
2021/06/14 07:56:48;;;;;;;10.88;4.65;;;;;;;22.05;49.12;100833.41;5054241;28;26827;-66
2021/06/14 07:59:13;;;;;;;9.45;4.82;;;;;;;22.21;48.03;100837.34;5054904;28;20028;-66
2021/06/14 08:01:39;;;;;;;9.63;4.60;;;;;;;22.30;48.47;100838.66;5054551;28;20056;-66
2021/06/14 08:04:04;;;;;;;12.77;5.10;;;;;;;22.47;47.98;100841.56;5054985;28;20038;-67
2021/06/14 08:06:30;;;;;;;8.20;5.05;;;;;;;22.60;47.75;100835.06;5054965;28;20117;-66
2021/06/14 08:08:56;;;;;;;8.70;4.93;;;;;;;22.89;47.78;100842.53;5054311;28;33463;-67
2021/06/14 08:11:22;;;;;;;11.18;5.40;;;;;;;23.14;47.24;100836.88;5054962;28;20037;-68
2021/06/14 08:13:47;;;;;;;11.10;5.43;;;;;;;23.40;46.58;100831.97;5053864;28;20033;-68
2021/06/14 08:16:13;;;;;;;10.98;5.55;;;;;;;23.56;45.75;100825.78;5054804;28;20024;-67
2021/06/14 08:26:27;;;;;;;13.98;6.72;;;;;;;23.87;43.73;100834.53;5053167;28;20045;-73
2021/06/14 08:28:53;;;;;;;11.25;5.22;;;;;;;24.08;43.54;100833.03;5036127;28;20138;-69
2021/06/14 08:31:18;;;;;;;11.45;5.07;;;;;;;24.28;43.56;100829.88;5053848;28;20551;-67
2021/06/14 08:33:43;;;;;;;11.65;5.40;;;;;;;24.57;42.59;100823.53;5065778;28;20033;-71
2021/06/14 08:36:09;;;;;;;9.68;5.20;;;;;;;24.64;41.57;100819.56;5053077;28;20028;-73
2021/06/14 08:38:34;;;;;;;9.38;4.93;;;;;;;24.80;41.26;100814.38;5053674;28;35734;-70
2021/06/14 08:41:00;;;;;;;8.55;5.18;;;;;;;24.90;40.92;100827.31;5052341;28;31796;-68
2021/06/14 08:43:25;;;;;;;14.50;5.57;;;;;;;25.21;41.59;100828.56;5043401;28;20018;-75
2021/06/14 08:45:51;;;;;;;8.18;5.00;;;;;;;25.72;41.20;100820.19;5039535;28;20038;-70
2021/06/14 08:48:17;;;;;;;12.18;6.75;;;;;;;26.25;40.58;100817.72;5034461;28;20033;-71
2021/06/14 08:50:42;;;;;;;12.02;5.28;;;;;;;26.39;39.46;100814.56;4998770;28;36794;-66
2021/06/14 08:53:08;;;;;;;7.68;5.00;;;;;;;26.49;38.74;100814.63;5033720;28;31464;-70
2021/06/14 08:55:33;;;;;;;11.02;5.13;;;;;;;26.67;38.61;100810.69;5033908;28;20147;-75
2021/06/14 08:57:59;;;;;;;8.07;4.63;;;;;;;26.74;37.36;100811.28;5033841;28;20029;-69
2021/06/14 09:00:25;;;;;;;9.45;4.50;;;;;;;26.76;37.46;100811.84;5035437;28;36568;-67
2021/06/14 09:02:51;;;;;;;10.07;5.00;;;;;;;26.91;36.37;100811.09;5054313;28;20026;-68
2021/06/14 09:05:21;;;;;;;13.63;4.88;;;;;;;26.99;36.84;100807.06;5054208;28;20121;-70
2021/06/14 09:07:50;;;;;;;9.57;5.45;;;;;;;27.11;36.05;100812.31;5053740;28;20437;-69
2021/06/14 09:10:37;;;;;;;7.40;4.40;;;;;;;27.24;35.33;100809.09;5054391;28;20025;-68
2021/06/14 09:13:14;;;;;;;10.73;4.68;;;;;;;27.18;34.88;100802.78;5054194;28;20065;-68
2021/06/14 09:15:40;;;;;;;10.30;4.93;;;;;;;27.47;35.23;100801.56;5052214;28;20037;-71
2021/06/14 09:18:26;;;;;;;11.07;5.03;;;;;;;27.76;34.45;100809.28;5052657;28;20029;-66
2021/06/14 09:21:09;;;;;;;7.90;4.38;;;;;;;28.06;34.06;100791.28;5053963;28;20187;-68
2021/06/14 09:23:56;;;;;;;10.48;4.80;;;;;;;28.07;32.89;100793.75;5053883;28;20045;-66
2021/06/14 09:26:35;;;;;;;9.88;5.03;;;;;;;28.14;33.27;100799.78;5053706;28;20092;-70
2021/06/14 09:29:11;;;;;;;11.98;5.22;;;;;;;28.35;33.40;100797.03;5053829;28;20083;-68
2021/06/14 09:31:46;;;;;;;12.35;5.20;;;;;;;28.79;32.58;100810.16;5052432;28;20037;-67
2021/06/14 09:34:12;;;;;;;13.57;5.30;;;;;;;28.66;30.87;100799.78;5054164;28;20026;-68
2021/06/14 09:36:38;;;;;;;14.00;7.63;;;;;;;28.17;30.25;100787.44;5054260;28;20026;-70
2021/06/14 09:39:11;;;;;;;10.90;6.30;;;;;;;27.67;29.85;100789.84;5052764;28;20371;-70
2021/06/14 09:41:41;;;;;;;15.13;5.93;;;;;;;27.45;30.73;100785.41;5053890;28;20029;-68
2021/06/14 09:44:06;;;;;;;10.57;5.57;;;;;;;27.61;31.13;100780.81;5057113;28;20032;-69
2021/06/14 09:46:33;;;;;;;10.13;5.05;;;;;;;27.79;30.54;100782.19;5056586;28;27275;-69
2021/06/14 09:49:00;;;;;;;11.32;5.18;;;;;;;28.05;30.96;100775.94;5056927;28;20029;-68
2021/06/14 09:51:26;;;;;;;9.00;4.43;;;;;;;28.10;29.85;100770.47;5056822;28;20602;-67
2021/06/14 09:53:52;;;;;;;11.23;5.05;;;;;;;28.25;30.24;100775.94;5055608;28;20108;-69
2021/06/14 09:56:20;;;;;;;7.53;4.78;;;;;;;28.58;30.49;100778.38;5056026;28;20077;-71
2021/06/14 09:58:46;;;;;;;11.73;5.95;;;;;;;28.67;29.13;100777.56;5055363;28;20450;-70
2021/06/14 10:01:12;;;;;;;10.05;4.85;;;;;;;28.70;29.07;100777.03;5055503;28;20029;-68
2021/06/14 10:03:42;;;;;;;13.10;5.13;;;;;;;28.80;28.77;100772.59;5056821;28;20038;-70
2021/06/14 10:06:07;;;;;;;12.95;5.30;;;;;;;28.31;27.39;100772.13;5056856;28;20041;-75
2021/06/14 10:08:33;;;;;;;11.77;6.78;;;;;;;28.00;27.94;100763.91;5055206;28;20937;-68
2021/06/14 10:11:07;;;;;;;16.58;12.20;;;;;;;27.74;27.76;100768.50;5056144;28;20029;-68
2021/06/14 10:13:33;;;;;;;10.38;5.45;;;;;;;27.59;28.36;100774.78;5039583;28;20036;-68
2021/06/14 10:16:07;;;;;;;11.57;4.80;;;;;;;27.46;28.58;100767.06;5054731;28;20394;-67
2021/06/14 10:18:43;;;;;;;9.05;4.88;;;;;;;27.76;29.30;100762.75;5055490;28;20049;-69
2021/06/14 10:21:29;;;;;;;8.07;5.15;;;;;;;28.22;28.86;100767.47;5040443;28;20039;-69
2021/06/14 10:23:57;;;;;;;10.15;5.25;;;;;;;28.58;28.95;100760.00;5056373;28;20033;-68
2021/06/14 10:26:23;;;;;;;8.00;4.80;;;;;;;28.71;27.82;100747.69;5055945;28;20034;-67
2021/06/14 10:28:49;;;;;;;10.18;5.15;;;;;;;28.37;27.55;100754.56;5055467;28;20107;-67
2021/06/14 10:31:14;;;;;;;8.63;5.03;;;;;;;28.19;27.30;100745.00;5055315;28;20545;-69
2021/06/14 10:33:40;;;;;;;9.10;4.55;;;;;;;27.79;26.20;100752.09;5054785;28;20091;-68
2021/06/14 10:36:06;;;;;;;16.73;5.47;;;;;;;27.01;26.12;100751.03;5056078;28;20501;-68
2021/06/14 10:38:31;;;;;;;10.45;5.05;;;;;;;26.25;26.38;100752.19;5054785;28;20080;-70
2021/06/14 10:40:57;;;;;;;7.63;4.88;;;;;;;25.53;26.54;100743.31;5038315;28;20026;-71
2021/06/14 10:43:26;;;;;;;9.70;5.00;;;;;;;25.09;27.47;100737.91;5037374;28;28119;-73
2021/06/14 10:45:52;;;;;;;11.43;5.47;;;;;;;25.19;28.21;100729.81;5038266;28;20033;-70
2021/06/14 10:48:23;;;;;;;15.75;6.85;;;;;;;25.39;28.90;100736.63;5055697;28;20753;-69
2021/06/14 10:50:48;;;;;;;12.68;7.18;;;;;;;26.07;29.81;100742.50;5038740;28;20068;-71
2021/06/14 10:53:22;;;;;;;9.27;4.93;;;;;;;26.84;29.93;100736.72;5054994;28;20032;-71
2021/06/14 10:55:49;;;;;;;9.75;5.03;;;;;;;27.25;28.93;100733.34;5055645;28;20120;-68
2021/06/14 10:58:18;;;;;;;9.00;5.10;;;;;;;27.44;28.81;100725.50;5055624;28;20103;-68
2021/06/14 11:00:44;;;;;;;7.88;5.07;;;;;;;27.53;28.16;100730.16;5055491;28;20032;-79
2021/06/14 11:03:09;;;;;;;9.82;5.07;;;;;;;27.66;28.17;100728.00;5054399;28;35271;-69
2021/06/14 11:05:43;;;;;;;9.57;4.72;;;;;;;27.66;28.15;100719.78;5055340;28;20026;-71
2021/06/14 11:08:21;;;;;;;8.88;4.55;;;;;;;27.63;27.36;100704.72;5055956;28;20048;-71
2021/06/14 11:10:58;;;;;;;9.20;4.82;;;;;;;27.80;27.99;100704.47;5055980;28;20823;-71
2021/06/14 11:13:24;;;;;;;7.85;4.68;;;;;;;27.96;27.79;100708.00;5056225;28;20116;-69
2021/06/14 11:16:02;;;;;;;8.77;4.65;;;;;;;27.81;26.67;100697.88;5053398;28;34576;-69
2021/06/14 11:18:32;;;;;;;10.30;4.55;;;;;;;27.30;26.40;100697.81;5056041;28;20483;-68
2021/06/14 11:21:06;;;;;;;;;;;;;;;27.14;27.03;100710.59;5054611;28;20060;-70
2021/06/14 11:23:32;;;;;;;9.13;5.13;;;;;;;27.09;27.32;100702.38;5055696;28;19917;-72
2021/06/14 11:25:58;;;;;;;9.98;5.32;;;;;;;27.24;27.49;100691.47;5053437;28;32704;-68
2021/06/14 11:28:34;;;;;;;10.20;5.22;;;;;;;27.36;27.69;100694.81;5055455;28;20021;-69
2021/06/14 11:31:00;;;;;;;9.80;5.03;;;;;;;27.42;27.02;100692.09;5055338;28;20034;-71
2021/06/14 11:33:28;;;;;;;8.02;4.35;;;;;;;27.43;27.15;100683.63;5055443;28;20025;-69
2021/06/14 11:35:56;;;;;;;8.45;4.63;;;;;;;27.72;27.72;100688.59;5055285;28;20033;-69
2021/06/14 11:38:22;;;;;;;10.25;5.40;;;;;;;27.93;27.04;100685.84;5055404;28;20033;-67
2021/06/14 11:40:56;;;;;;;8.25;4.68;;;;;;;27.83;26.85;100682.03;5055079;28;20025;-70
2021/06/14 11:43:21;;;;;;;8.18;4.65;;;;;;;27.81;26.53;100684.19;5037540;28;20088;-74
2021/06/14 11:45:49;;;;;;;11.32;4.90;;;;;;;27.43;25.92;100674.59;5054950;28;20083;-72
2021/06/14 11:48:29;;;;;;;8.32;4.85;;;;;;;27.07;25.73;100682.72;5054949;28;20030;-70
2021/06/14 11:51:08;;;;;;;10.15;4.93;;;;;;;26.80;26.60;100678.22;5055015;28;20731;-66
2021/06/14 11:53:53;;;;;;;10.27;4.65;;;;;;;26.97;26.72;100667.91;5055555;28;20076;-69
2021/06/14 11:56:19;;;;;;;9.35;4.97;;;;;;;26.50;25.52;100674.22;5053545;28;20103;-67
2021/06/14 11:58:47;;;;;;;10.90;5.40;;;;;;;26.37;26.56;100675.53;5055083;28;20115;-71
2021/06/14 12:01:12;;;;;;;10.60;5.70;;;;;;;26.49;26.71;100669.84;5053200;28;20026;-74
2021/06/14 12:03:38;;;;;;;9.75;5.05;;;;;;;26.55;26.51;100660.59;5054821;28;20036;-70
2021/06/14 12:06:03;;;;;;;13.23;4.90;;;;;;;26.52;26.85;100667.41;5054086;28;20037;-67
2021/06/14 12:08:29;;;;;;;8.45;4.65;;;;;;;26.61;26.79;100664.19;5054605;28;20060;-72
2021/06/14 12:10:56;;;;;;;8.00;4.45;;;;;;;26.71;26.87;100650.59;5054940;28;20034;-69
2021/06/14 12:13:21;;;;;;;8.75;4.50;;;;;;;26.85;26.63;100648.19;5055079;28;20108;-72
2021/06/14 12:15:48;;;;;;;10.35;4.47;;;;;;;26.93;26.82;100650.41;5054637;28;20088;-71
2021/06/14 12:18:14;;;;;;;9.93;4.65;;;;;;;27.02;26.92;100647.94;5054674;28;20489;-69
2021/06/14 12:20:40;;;;;;;9.80;5.95;;;;;;;27.22;26.82;100644.44;5053130;28;20022;-70
2021/06/14 12:23:15;;;;;;;7.88;4.75;;;;;;;27.34;26.80;100638.75;5054596;28;20034;-69
2021/06/14 12:25:49;;;;;;;8.95;4.75;;;;;;;27.38;26.33;100641.75;5054457;28;20896;-68
2021/06/14 12:28:16;;;;;;;10.07;4.72;;;;;;;27.41;26.53;100643.97;5036885;28;20041;-67
2021/06/14 12:30:47;;;;;;;9.20;4.40;;;;;;;27.58;26.91;100644.50;5053451;28;20488;-65
2021/06/14 12:33:26;;;;;;;9.23;4.78;;;;;;;27.91;27.17;100642.28;5054036;28;20029;-67
2021/06/14 12:35:52;;;;;;;10.77;5.05;;;;;;;28.00;26.55;100640.69;5052805;28;20030;-70
2021/06/14 12:38:17;;;;;;;9.00;4.43;;;;;;;27.97;26.13;100641.22;5054029;28;20029;-66
2021/06/14 12:40:43;;;;;;;7.78;4.60;;;;;;;28.02;26.19;100638.50;5053410;28;37084;-65
2021/06/14 12:43:11;;;;;;;9.00;4.70;;;;;;;28.06;25.86;100638.75;5051979;28;36496;-66
2021/06/14 12:45:38;;;;;;;8.20;4.78;;;;;;;28.02;25.84;100638.50;5053790;28;20125;-66
2021/06/14 12:48:06;;;;;;;6.82;4.10;;;;;;;27.90;24.92;100634.38;5052782;28;20782;-66
2021/06/14 12:50:36;;;;;;;8.05;4.38;;;;;;;27.69;25.48;100629.75;5052650;28;20100;-66
2021/06/14 12:53:02;;;;;;;8.18;5.00;;;;;;;27.42;25.02;100626.44;5054023;28;20032;-66
2021/06/14 12:55:29;;;;;;;12.05;8.70;;;;;;;27.31;25.55;100618.22;5054014;28;20045;-66
2021/06/14 12:57:55;;;;;;;10.50;5.00;;;;;;;27.32;25.55;100614.38;5051766;28;20064;-67
2021/06/14 13:00:41;;;;;;;10.07;4.93;;;;;;;27.40;25.70;100610.31;5053923;28;20057;-67
2021/06/14 13:03:07;;;;;;;8.73;4.82;;;;;;;27.47;25.44;100608.13;5043912;28;20038;-68
2021/06/14 13:05:34;;;;;;;10.25;4.60;;;;;;;27.45;25.52;100602.09;5032844;28;20038;-68
2021/06/14 13:08:05;;;;;;;9.60;5.00;;;;;;;27.44;25.43;100596.91;5038344;28;20737;-67
2021/06/14 13:10:39;;;;;;;8.10;4.07;;;;;;;27.33;25.16;100599.59;5051604;28;20030;-69
2021/06/14 13:13:20;;;;;;;9.90;4.82;;;;;;;27.08;24.96;100594.09;5053069;28;20059;-69
2021/06/14 13:15:48;;;;;;;8.05;4.28;;;;;;;26.86;24.89;100586.97;5051018;28;20037;-67
2021/06/14 13:18:14;;;;;;;10.25;5.15;;;;;;;26.60;24.65;100586.03;5054561;28;20120;-69
2021/06/14 13:20:39;;;;;;;12.63;4.63;;;;;;;26.24;24.37;100573.03;5056511;28;20433;-68
2021/06/14 13:23:18;;;;;;;9.18;4.65;;;;;;;25.64;24.12;100573.22;5056399;28;20046;-67
2021/06/14 13:25:57;;;;;;;9.73;4.65;;;;;;;25.23;24.84;100572.03;5056142;28;20505;-68
2021/06/14 13:28:27;;;;;;;9.77;4.18;;;;;;;25.04;25.13;100572.38;5055790;28;20087;-68
2021/06/14 13:30:54;;;;;;;10.50;5.07;;;;;;;25.06;25.44;100570.25;5056013;28;20026;-68
2021/06/14 13:33:29;;;;;;;8.82;4.95;;;;;;;25.05;25.79;100573.22;5056046;28;20025;-67
2021/06/14 13:35:55;;;;;;;7.68;5.13;;;;;;;25.00;25.92;100561.19;5054910;28;20086;-68
2021/06/14 13:38:25;;;;;;;8.70;4.57;;;;;;;24.92;26.11;100569.84;5055385;28;20134;-68
2021/06/14 13:40:51;;;;;;;9.63;4.57;;;;;;;24.91;26.46;100564.66;5055314;28;20044;-68
2021/06/14 13:43:27;;;;;;;7.97;4.50;;;;;;;24.79;25.72;100553.88;5054238;28;20034;-69
2021/06/14 13:45:52;;;;;;;8.70;4.68;;;;;;;24.62;26.33;100548.53;5054353;28;20037;-68
2021/06/14 13:48:20;;;;;;;9.25;5.07;;;;;;;24.54;26.31;100547.06;5055740;28;20034;-69
2021/06/14 13:50:47;;;;;;;7.97;4.30;;;;;;;24.62;26.75;100548.53;5055302;28;20032;-68
2021/06/14 13:53:20;;;;;;;10.27;6.10;;;;;;;24.75;26.97;100537.22;5055446;28;20028;-69
2021/06/14 13:56:13;;;;;;;9.10;4.32;;;;;;;24.85;27.03;100539.25;5055043;28;20046;-67
2021/06/14 13:58:42;;;;;;;8.77;4.78;;;;;;;24.79;27.10;100537.53;5053265;28;20041;-67
2021/06/14 14:01:16;;;;;;;11.13;4.65;;;;;;;24.75;27.00;100536.41;5055068;28;20087;-69
2021/06/14 14:03:42;;;;;;;9.90;5.10;;;;;;;24.67;27.26;100533.06;5055225;28;20031;-68
2021/06/14 14:06:08;;;;;;;12.20;4.97;;;;;;;24.70;27.25;100530.91;5055005;28;20041;-68
2021/06/14 14:08:33;;;;;;;12.77;5.47;;;;;;;24.77;27.64;100517.94;5054536;28;20034;-68
2021/06/14 14:11:00;;;;;;;10.20;4.32;;;;;;;24.79;27.33;100522.00;5053993;28;20030;-68
2021/06/14 14:13:25;;;;;;;12.05;4.68;;;;;;;24.79;27.65;100513.03;5055074;28;20037;-68
2021/06/14 14:15:51;;;;;;;7.80;5.05;;;;;;;24.85;27.55;100514.72;5053402;28;20030;-68
2021/06/14 14:18:16;;;;;;;7.85;4.05;;;;;;;24.84;27.80;100507.63;5054918;28;20056;-66
2021/06/14 14:20:43;;;;;;;9.98;4.60;;;;;;;24.82;27.70;100501.59;5054620;28;20509;-68
2021/06/14 14:23:08;;;;;;;8.95;4.55;;;;;;;24.71;27.67;100492.50;5055481;28;20068;-69
2021/06/14 14:25:33;;;;;;;8.98;4.50;;;;;;;24.69;27.83;100505.56;5054764;28;25044;-69
2021/06/14 14:28:01;;;;;;;10.57;5.05;;;;;;;24.62;27.90;100497.59;5053899;28;28094;-68
2021/06/14 14:30:34;;;;;;;9.15;5.25;;;;;;;24.56;27.74;100512.19;5055015;28;20490;-69
2021/06/14 14:33:00;;;;;;;8.90;4.32;;;;;;;24.41;27.89;100498.44;5037851;28;20037;-70
2021/06/14 14:35:49;;;;;;;12.00;5.35;;;;;;;24.31;27.67;100493.69;5053884;28;20113;-69
2021/06/14 14:38:14;;;;;;;11.13;5.18;;;;;;;24.26;28.05;100490.91;5054883;28;20556;-68
2021/06/14 14:40:39;;;;;;;8.95;5.15;;;;;;;24.22;27.96;100489.78;5036653;28;20072;-67
2021/06/14 14:43:06;;;;;;;8.48;4.60;;;;;;;24.13;27.97;100486.69;5052306;28;37488;-70
2021/06/14 14:45:32;;;;;;;10.55;4.65;;;;;;;24.12;28.25;100479.59;5054441;28;20029;-68
2021/06/14 14:48:04;;;;;;;10.68;5.53;;;;;;;24.11;28.35;100480.66;5036655;28;20041;-68
2021/06/14 14:50:37;;;;;;;10.82;4.80;;;;;;;24.02;28.40;100476.72;5036190;28;20036;-68
2021/06/14 14:53:03;;;;;;;9.45;5.07;;;;;;;23.98;28.80;100476.44;5036809;28;20030;-68
2021/06/14 14:55:29;;;;;;;10.90;5.07;;;;;;;23.93;28.76;100471.72;5052912;28;20398;-68
2021/06/14 14:57:58;;;;;;;10.35;4.85;;;;;;;23.93;28.74;100471.72;5053835;28;20038;-67
2021/06/14 15:00:24;;;;;;;9.20;5.57;;;;;;;23.91;28.81;100476.63;5054510;28;20768;-68
2021/06/14 15:02:49;;;;;;;13.55;5.20;;;;;;;23.79;28.66;100476.69;5052631;28;20022;-68
2021/06/14 15:05:15;;;;;;;8.10;5.20;;;;;;;23.62;28.79;100470.47;5052276;28;20036;-68
2021/06/14 15:07:43;;;;;;;8.55;4.82;;;;;;;23.56;28.95;100466.03;5053929;28;20042;-67
2021/06/14 15:10:09;;;;;;;9.15;5.20;;;;;;;23.49;29.21;100461.59;5054137;28;20029;-70
2021/06/14 15:12:34;;;;;;;10.07;5.30;;;;;;;23.37;29.17;100469.00;5054477;28;20033;-66
2021/06/14 15:14:59;;;;;;;9.50;5.05;;;;;;;23.27;29.47;100464.25;5053015;28;32537;-68
2021/06/14 15:17:25;;;;;;;9.68;5.15;;;;;;;23.26;29.95;100467.22;5054082;28;20037;-68
2021/06/14 15:19:51;;;;;;;9.15;5.45;;;;;;;23.24;29.76;100466.66;5049523;28;24801;-68
2021/06/14 15:22:19;;;;;;;9.27;5.32;;;;;;;23.20;30.14;100463.59;5049192;28;20030;-68
2021/06/14 15:24:45;;;;;;;11.10;5.22;;;;;;;23.14;30.15;100459.16;5053903;28;20415;-68
2021/06/14 15:27:10;;;;;;;11.50;6.18;;;;;;;23.06;30.24;100462.25;5053853;28;20033;-67
2021/06/14 15:29:36;;;;;;;12.95;6.22;;;;;;;23.05;30.59;100466.06;5054152;28;40867;-67
2021/06/14 15:32:02;;;;;;;9.32;5.38;;;;;;;23.02;30.78;100469.25;5054522;28;30727;-67
2021/06/14 15:34:28;;;;;;;8.48;4.85;;;;;;;23.07;30.91;100469.34;5054892;28;20045;-67
2021/06/14 15:36:53;;;;;;;13.25;6.22;;;;;;;23.12;31.01;100464.84;5055333;28;20037;-67
2021/06/14 15:39:18;;;;;;;10.20;5.40;;;;;;;23.17;31.28;100464.09;5054083;28;29259;-67
2021/06/14 15:41:44;;;;;;;8.57;4.88;;;;;;;23.14;31.31;100460.00;5053690;28;34547;-67
2021/06/14 15:44:09;;;;;;;10.25;5.45;;;;;;;23.14;31.33;100473.56;5055174;28;20398;-67
2021/06/14 15:46:34;;;;;;;11.15;5.55;;;;;;;23.16;31.50;100465.16;5054947;28;20071;-68
2021/06/14 15:49:00;;;;;;;9.32;5.07;;;;;;;23.21;31.80;100459.81;5054936;28;20035;-67
2021/06/14 15:51:26;;;;;;;9.77;5.20;;;;;;;23.24;31.67;100459.31;5055132;28;20026;-68
2021/06/14 15:53:52;;;;;;;11.38;5.10;;;;;;;23.25;31.45;100455.53;5053929;28;20029;-68
2021/06/14 15:56:17;;;;;;;10.45;5.07;;;;;;;23.22;31.64;100457.91;5054742;28;20128;-70
2021/06/14 15:58:43;;;;;;;11.65;5.25;;;;;;;23.20;31.69;100452.72;5055251;28;20073;-68
2021/06/14 16:01:09;;;;;;;9.52;5.50;;;;;;;23.19;31.67;100456.50;5053057;28;38397;-68
2021/06/14 16:03:34;;;;;;;8.63;5.18;;;;;;;23.16;31.82;100457.03;5055206;28;20030;-66
2021/06/14 16:06:00;;;;;;;9.45;4.80;;;;;;;23.12;31.82;100453.13;5053268;28;20116;-66
2021/06/14 16:08:25;;;;;;;11.88;6.35;;;;;;;23.02;31.93;100455.66;5054865;28;20107;-66
2021/06/14 16:10:51;;;;;;;9.57;5.22;;;;;;;22.98;32.00;100450.72;5055182;28;20040;-69
2021/06/14 16:13:17;;;;;;;8.20;5.45;;;;;;;22.97;32.01;100459.94;5055009;28;20087;-68
2021/06/14 16:15:43;;;;;;;8.88;5.88;;;;;;;22.74;31.68;100457.38;5054707;28;20025;-65
2021/06/14 16:18:08;;;;;;;8.32;5.18;;;;;;;22.54;32.04;100449.69;5054386;28;20831;-67
2021/06/14 16:20:34;;;;;;;10.50;6.00;;;;;;;22.39;32.09;100452.94;5054098;28;30713;-70
2021/06/14 16:23:00;;;;;;;8.93;5.07;;;;;;;22.34;32.45;100455.53;5053125;28;20026;-68
2021/06/14 16:25:29;;;;;;;12.27;5.78;;;;;;;22.36;32.78;100453.41;5054503;28;20033;-68
2021/06/14 16:27:54;;;;;;;9.98;5.45;;;;;;;22.40;33.00;100449.16;5053373;28;20022;-67